createdAt,value
2022-09-03T00:00:23.948Z,98811.81
2022-09-03T00:03:04.401Z,98813.25
2022-09-03T00:05:59.207Z,98791.72
2022-09-03T00:08:35.442Z,98777.31
2022-09-03T00:11:27.831Z,98762.47
2022-09-03T00:14:19.487Z,98766.59
2022-09-03T00:17:03.339Z,98759.31
2022-09-03T00:19:36.404Z,98794.25
2022-09-03T00:22:11.106Z,98791.06
2022-09-03T00:24:41.944Z,98783.75
2022-09-03T00:27:15.947Z,98785.28
2022-09-03T00:30:01.385Z,98791.72
2022-09-03T00:32:51.141Z,98776.94
2022-09-03T00:35:25.689Z,98779.72
2022-09-03T00:37:56.711Z,98764.56
2022-09-03T00:40:42.869Z,98756.88
2022-09-03T00:43:16.540Z,98746.25
2022-09-03T00:45:48.936Z,98736.75
2022-09-03T00:48:28.291Z,98751.03
2022-09-03T00:51:13.088Z,98731.50
2022-09-03T00:53:54.892Z,98745.75
2022-09-03T00:56:42.495Z,98711.56
2022-09-03T00:59:25.283Z,98710.22
2022-09-03T01:02:16.382Z,98704.56
2022-09-03T01:04:57.100Z,98695.19
2022-09-03T01:07:40.692Z,98701.63
2022-09-03T01:10:39.757Z,98702.09
2022-09-03T01:13:21.086Z,98705.19
2022-09-03T01:15:54.555Z,98689.72
2022-09-03T01:18:35.745Z,98679.78
2022-09-03T01:21:17.324Z,98686.22
2022-09-03T01:24:09.221Z,98669.06
2022-09-03T01:26:35.913Z,98670.38
2022-09-03T01:29:12.631Z,98676.59
2022-09-03T01:31:40.309Z,98675.41
2022-09-03T01:34:28.721Z,98698.19
2022-09-03T01:37:10.455Z,98687.22
2022-09-03T01:39:55.055Z,98716.06
2022-09-03T01:42:50.852Z,98704.97
2022-09-03T01:45:54.261Z,98708.66
2022-09-03T01:48:30.865Z,98698.44
2022-09-03T01:51:19.732Z,98683.25
2022-09-03T01:54:03.908Z,98678.53
2022-09-03T01:57:17.248Z,98671.88
2022-09-03T02:00:05.788Z,98676.63
2022-09-03T02:02:32.785Z,98661.06
2022-09-03T02:05:10.567Z,98671.03
2022-09-03T02:07:51.958Z,98658.41
2022-09-03T02:10:31.593Z,98673.34
2022-09-03T02:13:05.480Z,98677.91
2022-09-03T02:15:34.828Z,98666.31
2022-09-03T02:18:04.122Z,98681.25
2022-09-03T02:20:31.011Z,98681.72
2022-09-03T02:22:59.429Z,98689.31
2022-09-03T02:25:35.548Z,98718.97
2022-09-03T02:28:03.597Z,98717.00
2022-09-03T02:30:30.393Z,98731.56
2022-09-03T02:32:57.155Z,98747.53
2022-09-03T02:35:23.963Z,98760.09
2022-09-03T02:37:53.111Z,98764.03
2022-09-03T02:40:20.009Z,98766.38
2022-09-03T02:42:49.266Z,98766.69
2022-09-03T02:45:29.608Z,98751.72
2022-09-03T02:48:00.339Z,98733.47
2022-09-03T02:50:27.356Z,98747.09
2022-09-03T02:52:54.245Z,98735.78
2022-09-03T02:55:21.926Z,98736.41
2022-09-03T02:57:48.681Z,98725.41
2022-09-03T03:00:15.781Z,98714.47
2022-09-03T03:02:43.337Z,98720.59
2022-09-03T03:05:18.807Z,98707.38
2022-09-03T03:07:45.888Z,98698.53
2022-09-03T03:10:12.884Z,98704.00
2022-09-03T03:12:40.196Z,98691.22
2022-09-03T03:15:07.436Z,98691.97
2022-09-03T03:17:34.297Z,98699.06
2022-09-03T03:20:01.349Z,98691.50
2022-09-03T03:22:28.033Z,98693.78
2022-09-03T03:24:57.470Z,98682.59
2022-09-03T03:27:24.363Z,98675.97
2022-09-03T03:29:51.031Z,98690.91
2022-09-03T03:32:17.771Z,98693.47
2022-09-03T03:34:44.441Z,98685.81
2022-09-03T03:37:13.312Z,98688.75
2022-09-03T03:39:40.053Z,98683.63
2022-09-03T03:42:06.969Z,98692.69
2022-09-03T03:44:33.802Z,98683.63
2022-09-03T03:47:00.545Z,98675.13
2022-09-03T03:49:27.752Z,98679.13
2022-09-03T03:51:54.595Z,98660.81
2022-09-03T03:54:22.877Z,98661.06
2022-09-03T03:56:55.355Z,98669.28
2022-09-03T03:59:23.373Z,98668.00
2022-09-03T04:01:51.100Z,98669.59
2022-09-03T04:04:17.998Z,98657.66
2022-09-03T04:06:45.096Z,98647.88
2022-09-03T04:09:11.912Z,98651.41
2022-09-03T04:11:39.261Z,98649.38
2022-09-03T04:14:05.941Z,98625.38
2022-09-03T04:16:33.093Z,98635.66
2022-09-03T04:19:00.183Z,98619.28
2022-09-03T04:21:29.329Z,98600.56
2022-09-03T04:23:57.305Z,98599.91
2022-09-03T04:26:26.496Z,98580.00
2022-09-03T04:28:55.267Z,98563.22
2022-09-03T04:31:22.556Z,98560.94
2022-09-03T04:33:49.457Z,98555.59
2022-09-03T04:36:21.313Z,98540.91
2022-09-03T04:38:49.609Z,98532.03
2022-09-03T04:41:24.229Z,98537.19
2022-09-03T04:43:51.758Z,98532.53
2022-09-03T04:46:20.915Z,98505.84
2022-09-03T04:48:51.433Z,98516.28
2022-09-03T04:51:27.390Z,98507.06
2022-09-03T04:54:05.000Z,98492.91
2022-09-03T04:56:35.253Z,98500.69
2022-09-03T04:59:05.923Z,98489.94
2022-09-03T05:01:34.603Z,98476.75
2022-09-03T05:04:01.782Z,98473.13
2022-09-03T05:06:30.301Z,98477.28
2022-09-03T05:08:57.807Z,98464.84
2022-09-03T05:11:26.492Z,98470.66
2022-09-03T05:13:55.808Z,98466.44
2022-09-03T05:16:23.940Z,98474.91
2022-09-03T05:18:55.595Z,98479.78
2022-09-03T05:21:23.119Z,98475.06
2022-09-03T05:23:51.219Z,98483.63
2022-09-03T05:26:20.768Z,98483.38
2022-09-03T05:28:47.816Z,98470.13
2022-09-03T05:31:20.369Z,98480.66
2022-09-03T05:33:51.006Z,98480.72
2022-09-03T05:36:20.833Z,98474.50
2022-09-03T05:38:47.811Z,98494.22
2022-09-03T05:41:16.224Z,98489.59
2022-09-03T05:43:45.744Z,98501.66
2022-09-03T05:46:18.647Z,98486.81
2022-09-03T05:48:46.123Z,98486.00
2022-09-03T05:51:16.512Z,98491.84
2022-09-03T05:53:48.215Z,98492.00
2022-09-03T05:56:21.052Z,98489.66
2022-09-03T05:58:54.535Z,98507.88
2022-09-03T06:01:29.909Z,98508.47
2022-09-03T06:04:11.191Z,98519.94
2022-09-03T06:06:40.261Z,98508.66
2022-09-03T06:09:15.697Z,98507.81
2022-09-03T06:11:42.921Z,98505.25
2022-09-03T06:14:13.920Z,98510.59
2022-09-03T06:16:45.998Z,98500.72
2022-09-03T06:19:14.304Z,98514.50
2022-09-03T06:21:43.843Z,98518.72
2022-09-03T06:24:26.483Z,98513.97
2022-09-03T06:26:56.147Z,98514.03
2022-09-03T06:29:24.812Z,98507.22
2022-09-03T06:31:53.770Z,98511.38
2022-09-03T06:34:22.745Z,98496.63
2022-09-03T06:36:49.692Z,98492.09
2022-09-03T06:39:18.885Z,98487.88
2022-09-03T06:41:45.948Z,98496.63
2022-09-03T06:44:15.315Z,98492.78
2022-09-03T06:46:42.923Z,98482.91
2022-09-03T06:49:10.835Z,98491.44
2022-09-03T06:51:39.055Z,98488.34
2022-09-03T06:54:08.033Z,98484.06
2022-09-03T06:56:40.209Z,98497.81
2022-09-03T06:59:13.809Z,98495.13
2022-09-03T07:01:43.965Z,98497.66
2022-09-03T07:04:12.905Z,98508.00
2022-09-03T07:06:40.981Z,98497.00
2022-09-03T07:09:11.272Z,98512.13
2022-09-03T07:11:46.011Z,98517.28
2022-09-03T07:14:13.364Z,98513.44
2022-09-03T07:16:41.982Z,98530.66
2022-09-03T07:19:09.448Z,98522.06
2022-09-03T07:21:37.366Z,98519.78
2022-09-03T07:24:06.035Z,98534.75
2022-09-03T07:26:44.726Z,98543.22
2022-09-03T07:29:12.069Z,98536.41
2022-09-03T07:31:41.213Z,98544.81
2022-09-03T07:34:10.826Z,98545.41
2022-09-03T07:36:48.652Z,98536.97
2022-09-03T07:39:16.689Z,98544.97
2022-09-03T07:41:45.794Z,98538.34
2022-09-03T07:44:19.900Z,98534.88
2022-09-03T07:46:48.176Z,98534.34
2022-09-03T07:49:15.335Z,98537.78
2022-09-03T07:51:42.113Z,98541.63
2022-09-03T07:54:11.427Z,98541.06
2022-09-03T07:56:41.720Z,98532.09
2022-09-03T07:59:12.137Z,98547.78
2022-09-03T08:01:41.706Z,98542.56
2022-09-03T08:04:09.826Z,98540.81
2022-09-03T08:06:40.699Z,98536.59
2022-09-03T08:09:11.539Z,98538.50
2022-09-03T08:11:44.210Z,98524.88
2022-09-03T08:14:14.579Z,98529.94
2022-09-03T08:16:44.405Z,98517.72
2022-09-03T08:19:13.596Z,98506.53
2022-09-03T08:21:44.349Z,98520.13
2022-09-03T08:24:12.424Z,98503.50
2022-09-03T08:26:46.357Z,98514.63
2022-09-03T08:29:17.406Z,98521.16
2022-09-03T08:31:44.785Z,98512.34
2022-09-03T08:34:12.065Z,98520.84
2022-09-03T08:36:41.526Z,98538.69
2022-09-03T08:39:10.589Z,98526.56
2022-09-03T08:42:08.472Z,98555.16
2022-09-03T08:44:54.268Z,98546.66
2022-09-03T08:47:39.378Z,98550.44
2022-09-03T08:50:29.289Z,98575.28
2022-09-03T08:53:09.990Z,98557.44
2022-09-03T08:55:44.845Z,98572.47
2022-09-03T08:58:18.937Z,98572.03
2022-09-03T09:01:03.897Z,98560.63
2022-09-03T09:03:38.545Z,98580.03
2022-09-03T09:06:20.703Z,98554.00
2022-09-03T09:09:18.582Z,98547.03
2022-09-03T09:12:25.405Z,98541.13
2022-09-03T09:15:00.525Z,98540.84
2022-09-03T09:18:04.175Z,98547.75
2022-09-03T09:20:39.544Z,98552.97
2022-09-03T09:23:09.274Z,98546.53
2022-09-03T09:25:50.643Z,98568.34
2022-09-03T09:28:33.822Z,98570.44
2022-09-03T09:31:02.970Z,98594.06
2022-09-03T09:33:35.540Z,98589.53
2022-09-03T09:36:05.339Z,98585.63
2022-09-03T09:38:38.423Z,98596.97
2022-09-03T09:41:19.718Z,98593.34
2022-09-03T09:43:50.427Z,98583.75
2022-09-03T09:46:22.907Z,98601.16
2022-09-03T09:48:59.163Z,98596.31
2022-09-03T09:51:31.431Z,98597.47
2022-09-03T09:54:13.444Z,98601.13
2022-09-03T09:56:44.688Z,98605.19
2022-09-03T09:59:15.429Z,98632.28
2022-09-03T10:01:47.412Z,98634.66
2022-09-03T10:04:24.604Z,98680.56
2022-09-03T10:07:05.819Z,98678.88
2022-09-03T10:09:36.016Z,98691.34
2022-09-03T10:12:08.316Z,98698.72
2022-09-03T10:14:40.166Z,98684.13
2022-09-03T10:17:37.409Z,98681.88
2022-09-03T10:20:52.436Z,98671.69
2022-09-03T10:23:28.192Z,98671.44
2022-09-03T10:26:10.422Z,98669.41
2022-09-03T10:28:44.430Z,98681.22
2022-09-03T10:31:44.664Z,98699.38
2022-09-03T10:34:26.312Z,98726.19
2022-09-03T10:37:09.795Z,98756.28
2022-09-03T10:39:47.697Z,98779.09
2022-09-03T10:42:27.683Z,98804.31
2022-09-03T10:45:18.367Z,98838.41
2022-09-03T10:48:12.291Z,98876.44
2022-09-03T10:50:38.928Z,98895.66
2022-09-03T10:53:22.499Z,98924.03
2022-09-03T10:56:33.271Z,98941.38
2022-09-03T10:59:37.070Z,98939.78
2022-09-03T11:02:27.167Z,98948.09
2022-09-03T11:05:16.486Z,98970.16
2022-09-03T11:07:54.405Z,98989.84
2022-09-03T11:10:30.708Z,98994.84
2022-09-03T11:13:18.877Z,99006.69
2022-09-03T11:16:12.686Z,99018.50
2022-09-03T11:18:56.179Z,99024.06
2022-09-03T11:21:28.856Z,99033.50
2022-09-03T11:24:18.076Z,99057.59
2022-09-03T11:26:49.157Z,99091.94
2022-09-03T11:29:30.228Z,99075.00
2022-09-03T11:32:08.163Z,99062.34
2022-09-03T11:34:50.313Z,99068.84
2022-09-03T11:37:26.238Z,99067.63
2022-09-03T11:39:59.014Z,99087.19
2022-09-03T11:42:37.232Z,99088.88
2022-09-03T11:45:30.329Z,99112.44
2022-09-03T11:47:57.737Z,99137.38
2022-09-03T11:50:27.841Z,99145.25
2022-09-03T11:53:26.618Z,99127.59
2022-09-03T11:55:56.360Z,99126.28
2022-09-03T11:58:35.679Z,99134.31
2022-09-03T12:01:08.615Z,99144.34
2022-09-03T12:03:58.680Z,99200.72
2022-09-03T12:06:50.041Z,99214.50
2022-09-03T12:09:19.776Z,99211.16
2022-09-03T12:11:58.375Z,99207.91
2022-09-03T12:14:42.498Z,99267.03
2022-09-03T12:17:12.155Z,99281.72
2022-09-03T12:19:53.993Z,99261.69
2022-09-03T12:22:23.748Z,99265.63
2022-09-03T12:24:51.192Z,99274.31
2022-09-03T12:27:24.974Z,99278.59
2022-09-03T12:30:01.068Z,99268.81
2022-09-03T12:32:37.440Z,99271.25
2022-09-03T12:35:58.363Z,99282.59
2022-09-03T12:38:06.787Z,99328.91
2022-09-03T12:40:35.605Z,99325.63
2022-09-03T12:43:49.870Z,99323.41
2022-09-03T12:46:16.502Z,99329.38
2022-09-03T12:51:49.214Z,99385.66
2022-09-03T12:54:18.521Z,99369.69
2022-09-03T12:56:57.436Z,99375.34
2022-09-03T12:59:31.696Z,99387.00
2022-09-03T13:02:12.894Z,99399.50
2022-09-03T13:04:41.710Z,99382.84
2022-09-03T13:07:15.608Z,99377.28
2022-09-03T13:09:42.800Z,99389.28
2022-09-03T13:12:22.279Z,99414.44
2022-09-03T13:14:52.777Z,99436.25
2022-09-03T13:17:28.696Z,99419.91
2022-09-03T13:20:19.864Z,99410.47
2022-09-03T13:23:12.713Z,99435.09
2022-09-03T13:25:45.576Z,99439.59
2022-09-03T13:28:49.703Z,99424.56
2022-09-03T13:31:32.668Z,99429.03
2022-09-03T13:34:10.849Z,99409.00
2022-09-03T13:36:43.333Z,99402.03
2022-09-03T13:39:31.196Z,99392.59
2022-09-03T13:42:07.621Z,99436.25
2022-09-03T13:44:58.985Z,99421.63
2022-09-03T13:48:04.736Z,99430.41
2022-09-03T13:50:41.538Z,99426.41
2022-09-03T13:53:41.366Z,99420.03
2022-09-03T13:56:37.255Z,99413.78
2022-09-03T13:59:28.263Z,99408.16
2022-09-03T14:02:20.241Z,99430.34
2022-09-03T14:05:03.713Z,99420.75
2022-09-03T14:07:48.161Z,99441.19
2022-09-03T14:10:14.790Z,99423.59
2022-09-03T14:12:49.897Z,99448.22
2022-09-03T14:15:30.621Z,99449.88
2022-09-03T14:18:00.216Z,99481.13
2022-09-03T14:20:38.555Z,99479.97
2022-09-03T14:23:35.035Z,99484.66
2022-09-03T14:26:05.631Z,99476.22
2022-09-03T14:28:36.172Z,99471.56
2022-09-03T14:31:24.100Z,99499.84
2022-09-03T14:34:10.147Z,99473.41
2022-09-03T14:36:45.188Z,99484.78
2022-09-03T14:39:38.552Z,99474.22
2022-09-03T14:42:17.184Z,99467.34
2022-09-03T14:45:17.660Z,99491.56
2022-09-03T14:47:59.196Z,99488.41
2022-09-03T14:50:43.660Z,99499.28
2022-09-03T14:53:18.812Z,99502.25
2022-09-03T14:56:21.507Z,99506.72
2022-09-03T14:59:22.599Z,99520.31
2022-09-03T15:02:28.526Z,99504.94
2022-09-03T15:05:11.972Z,99531.75
2022-09-03T15:07:56.373Z,99519.44
2022-09-03T15:10:37.897Z,99515.81
2022-09-03T15:13:10.505Z,99532.19
2022-09-03T15:16:02.452Z,99535.41
2022-09-03T15:18:47.245Z,99538.28
2022-09-03T15:21:48.424Z,99519.78
2022-09-03T15:24:39.469Z,99525.97
2022-09-03T15:27:20.829Z,99494.31
2022-09-03T15:30:06.323Z,99494.03
2022-09-03T15:32:42.908Z,99483.63
2022-09-03T15:35:38.549Z,99479.75
2022-09-03T15:38:31.371Z,99479.19
2022-09-03T15:41:09.351Z,99480.25
2022-09-03T15:43:38.735Z,99471.56
2022-09-03T15:46:13.628Z,99463.19
2022-09-03T15:49:02.972Z,99468.94
2022-09-03T15:51:59.555Z,99478.09
2022-09-03T15:54:46.606Z,99479.84
2022-09-03T15:57:26.813Z,99478.56
2022-09-03T16:00:06.535Z,99483.53
2022-09-03T16:02:45.468Z,99477.44
2022-09-03T16:05:20.318Z,99475.44
2022-09-03T16:08:02.635Z,99482.97
2022-09-03T16:11:18.117Z,99486.03
2022-09-03T16:14:07.583Z,99483.22
2022-09-03T16:16:54.905Z,99487.88
2022-09-03T16:20:01.223Z,99503.47
2022-09-03T16:22:46.512Z,99500.59
2022-09-03T16:25:22.945Z,99505.22
2022-09-03T16:28:07.665Z,99509.28
2022-09-03T16:30:51.168Z,99515.22
2022-09-03T16:33:21.740Z,99510.56
2022-09-03T16:36:27.069Z,99513.94
2022-09-03T16:39:05.747Z,99506.59
2022-09-03T16:41:41.891Z,99481.94
2022-09-03T16:44:26.982Z,99448.28
2022-09-03T16:47:06.152Z,99451.28
2022-09-03T16:50:00.644Z,99449.38
2022-09-03T16:53:10.574Z,99457.50
2022-09-03T16:55:37.922Z,99459.78
2022-09-03T16:58:22.240Z,99466.19
2022-09-03T17:01:04.046Z,99448.63
2022-09-03T17:03:57.235Z,99428.09
2022-09-03T17:06:32.744Z,99434.81
2022-09-03T17:09:16.172Z,99450.84
2022-09-03T17:12:13.039Z,99456.31
2022-09-03T17:14:45.365Z,99433.88
2022-09-03T17:17:43.585Z,99441.56
2022-09-03T17:20:21.473Z,99452.13
2022-09-03T17:23:06.935Z,99440.59
2022-09-03T17:25:47.709Z,99439.47
2022-09-03T17:28:25.326Z,99437.88
2022-09-03T17:31:06.505Z,99442.81
2022-09-03T17:33:42.986Z,99426.78
2022-09-03T17:36:27.091Z,99434.47
2022-09-03T17:39:08.660Z,99424.03
2022-09-03T17:41:53.831Z,99418.13
2022-09-03T17:44:48.215Z,99403.69
2022-09-03T17:47:42.321Z,99414.13
2022-09-03T17:50:12.133Z,99394.22
2022-09-03T17:52:45.098Z,99395.41
2022-09-03T17:55:36.540Z,99402.63
2022-09-03T17:58:30.824Z,99417.31
2022-09-03T18:01:20.536Z,99399.16
2022-09-03T18:03:54.391Z,99400.50
2022-09-03T18:06:28.794Z,99382.50
2022-09-03T18:09:02.800Z,99380.78
2022-09-03T18:11:35.016Z,99360.38
2022-09-03T18:14:30.855Z,99359.78
2022-09-03T18:17:10.717Z,99369.84
2022-09-03T18:20:08.332Z,99355.75
2022-09-03T18:23:16.079Z,99356.84
2022-09-03T18:26:05.789Z,99346.25
2022-09-03T18:28:59.932Z,99355.88
2022-09-03T18:31:45.642Z,99364.03
2022-09-03T18:34:31.461Z,99378.44
2022-09-03T18:37:18.273Z,99378.25
2022-09-03T18:40:05.316Z,99379.91
2022-09-03T18:43:26.243Z,99365.41
2022-09-03T18:50:21.351Z,99332.66
2022-09-03T18:53:29.553Z,99342.09
2022-09-03T18:56:19.853Z,99340.34
2022-09-03T18:59:33.521Z,99341.44
2022-09-03T19:02:32.974Z,99324.50
2022-09-03T19:05:34.676Z,99314.75
2022-09-03T19:08:32.824Z,99306.91
2022-09-03T19:11:43.195Z,99307.53
2022-09-03T19:14:46.784Z,99284.63
2022-09-03T19:17:39.089Z,99289.91
2022-09-03T19:20:40.940Z,99276.16
2022-09-03T19:23:26.271Z,99276.47
2022-09-03T19:26:16.912Z,99267.66
2022-09-03T19:29:06.653Z,99272.63
2022-09-03T19:32:05.571Z,99267.47
2022-09-03T19:35:00.705Z,99267.22
2022-09-03T19:37:49.040Z,99253.09
2022-09-03T19:41:18.314Z,99259.53
2022-09-03T19:44:35.015Z,99236.16
2022-09-03T19:47:24.084Z,99239.22
2022-09-03T19:50:41.347Z,99220.69
2022-09-03T19:53:37.813Z,99220.53
2022-09-03T19:56:33.789Z,99201.19
2022-09-03T19:59:38.686Z,99208.06
2022-09-03T20:02:24.423Z,99190.78
2022-09-03T20:05:18.348Z,99192.72
2022-09-03T20:08:07.639Z,99176.09
2022-09-03T20:10:36.737Z,99182.97
2022-09-03T20:13:16.212Z,99178.94
2022-09-03T20:16:04.418Z,99171.31
2022-09-03T20:18:43.749Z,99173.50
2022-09-03T20:21:39.625Z,99162.34
2022-09-03T20:24:28.452Z,99190.44
2022-09-03T20:27:13.748Z,99166.50
2022-09-03T20:29:46.944Z,99172.09
2022-09-03T20:32:55.884Z,99160.56
2022-09-03T20:35:35.429Z,99149.56
2022-09-03T20:38:39.092Z,99160.03
2022-09-03T20:41:30.536Z,99132.13
2022-09-03T20:44:51.008Z,99137.69
2022-09-03T20:47:38.909Z,99112.47
2022-09-03T20:50:07.713Z,99111.50
2022-09-03T20:53:04.609Z,99093.28
2022-09-03T20:55:44.682Z,99098.88
2022-09-03T20:58:38.522Z,99100.59
2022-09-03T21:01:13.737Z,99092.97
2022-09-03T21:04:04.857Z,99106.88
2022-09-03T21:06:46.552Z,99088.81
2022-09-03T21:09:27.645Z,99093.78
2022-09-03T21:12:07.405Z,99100.59
2022-09-03T21:14:53.565Z,99096.19
2022-09-03T21:17:30.973Z,99096.94
2022-09-03T21:20:34.833Z,99083.22
2022-09-03T21:23:30.509Z,99092.16
2022-09-03T21:26:06.309Z,99070.91
2022-09-03T21:28:43.716Z,99073.13
2022-09-03T21:31:21.943Z,99069.31
2022-09-03T21:33:55.932Z,99065.97
2022-09-03T21:36:34.853Z,99071.25
2022-09-03T21:39:20.580Z,99081.16
2022-09-03T21:42:08.675Z,99121.72
2022-09-03T21:44:58.665Z,99102.59
2022-09-03T21:47:28.253Z,99103.66
2022-09-03T21:49:58.684Z,99091.03
2022-09-03T21:52:41.876Z,99093.59
2022-09-03T21:55:21.749Z,99102.22
2022-09-03T21:58:12.024Z,99101.25
2022-09-03T22:00:39.432Z,99102.34
2022-09-03T22:03:09.632Z,99088.00
2022-09-03T22:06:00.971Z,99085.09
2022-09-03T22:08:33.736Z,99053.34
2022-09-03T22:11:16.742Z,99060.03
2022-09-03T22:14:04.159Z,99048.50
2022-09-03T22:17:15.463Z,99053.44
2022-09-03T22:19:42.493Z,99036.78
2022-09-03T22:22:29.984Z,99029.03
2022-09-03T22:25:05.809Z,99003.78
2022-09-03T22:27:44.967Z,98996.16
2022-09-03T22:30:15.087Z,98998.22
2022-09-03T22:33:11.098Z,98989.44
2022-09-03T22:35:44.556Z,98994.22
2022-09-03T22:38:24.360Z,98985.41
2022-09-03T22:41:16.099Z,98989.06
2022-09-03T22:43:49.493Z,98980.25
2022-09-03T22:46:19.496Z,98979.97
2022-09-03T22:49:06.557Z,98976.56
2022-09-03T22:51:58.632Z,98982.22
2022-09-03T22:54:33.972Z,98969.41
2022-09-03T22:57:05.101Z,98963.53
2022-09-03T22:59:35.411Z,98962.59
2022-09-03T23:02:23.335Z,98949.78
2022-09-03T23:05:20.647Z,98968.75
2022-09-03T23:08:03.621Z,98947.19
2022-09-03T23:11:02.752Z,98939.25
2022-09-03T23:13:42.246Z,98925.84
2022-09-03T23:16:24.216Z,98917.25
2022-09-03T23:18:51.649Z,98909.56
2022-09-03T23:21:22.195Z,98896.03
2022-09-03T23:24:00.619Z,98905.44
2022-09-03T23:26:30.261Z,98879.09
2022-09-03T23:29:20.273Z,98878.66
2022-09-03T23:31:47.040Z,98881.16
2022-09-03T23:34:15.965Z,98865.88
2022-09-03T23:37:32.086Z,98879.44
2022-09-03T23:40:15.059Z,98862.06
2022-09-03T23:42:57.472Z,98887.09
2022-09-03T23:45:55.939Z,98891.25
2022-09-03T23:48:52.598Z,98914.03
2022-09-03T23:51:21.452Z,98901.28
2022-09-03T23:53:59.685Z,98917.03
2022-09-03T23:57:04.374Z,98919.72
2022-09-03T23:59:57.399Z,98914.66
